sensor_id;sensor_type;location;lat;lon;timestamp;P1;durP1;ratioP1;P2;durP2;ratioP2
70106;SDS011;57473;37.508;15.080;2022-08-14T00:02:13;11.70;;;7.07;;
70106;SDS011;57473;37.508;15.080;2022-08-14T00:04:40;18.77;;;11.02;;
70106;SDS011;57473;37.508;15.080;2022-08-14T00:07:11;10.20;;;7.00;;
70106;SDS011;57473;37.508;15.080;2022-08-14T00:09:40;8.35;;;6.38;;
70106;SDS011;57473;37.508;15.080;2022-08-14T00:12:30;9.32;;;6.43;;
70106;SDS011;57473;37.508;15.080;2022-08-14T00:15:24;8.77;;;6.63;;
70106;SDS011;57473;37.508;15.080;2022-08-14T00:18:03;8.45;;;6.10;;
70106;SDS011;57473;37.508;15.080;2022-08-14T00:20:33;14.80;;;6.50;;
70106;SDS011;57473;37.508;15.080;2022-08-14T00:23:09;10.80;;;6.78;;
70106;SDS011;57473;37.508;15.080;2022-08-14T00:25:47;8.88;;;6.30;;
70106;SDS011;57473;37.508;15.080;2022-08-14T00:28:32;10.88;;;7.30;;
70106;SDS011;57473;37.508;15.080;2022-08-14T00:31:02;8.50;;;5.90;;
70106;SDS011;57473;37.508;15.080;2022-08-14T00:33:33;9.77;;;6.43;;
70106;SDS011;57473;37.508;15.080;2022-08-14T00:36:18;9.73;;;6.43;;
70106;SDS011;57473;37.508;15.080;2022-08-14T00:39:13;7.93;;;6.40;;
70106;SDS011;57473;37.508;15.080;2022-08-14T00:41:44;8.32;;;6.72;;
70106;SDS011;57473;37.508;15.080;2022-08-14T00:44:13;11.48;;;6.78;;
70106;SDS011;57473;37.508;15.080;2022-08-14T00:46:52;7.75;;;5.97;;
70106;SDS011;57473;37.508;15.080;2022-08-14T00:49:24;9.98;;;6.82;;
70106;SDS011;57473;37.508;15.080;2022-08-14T00:51:55;7.70;;;6.13;;
70106;SDS011;57473;37.508;15.080;2022-08-14T00:54:23;11.02;;;6.38;;
70106;SDS011;57473;37.508;15.080;2022-08-14T00:56:52;7.40;;;5.75;;
70106;SDS011;57473;37.508;15.080;2022-08-14T00:59:22;7.95;;;5.68;;
70106;SDS011;57473;37.508;15.080;2022-08-14T01:01:53;7.63;;;5.57;;
70106;SDS011;57473;37.508;15.080;2022-08-14T01:04:24;7.00;;;5.57;;
70106;SDS011;57473;37.508;15.080;2022-08-14T01:07:14;7.15;;;5.20;;
70106;SDS011;57473;37.508;15.080;2022-08-14T01:09:56;6.70;;;5.25;;
70106;SDS011;57473;37.508;15.080;2022-08-14T01:12:27;8.82;;;5.53;;
70106;SDS011;57473;37.508;15.080;2022-08-14T01:14:57;7.32;;;6.05;;
70106;SDS011;57473;37.508;15.080;2022-08-14T01:17:28;7.53;;;5.72;;
70106;SDS011;57473;37.508;15.080;2022-08-14T01:20:18;7.28;;;5.43;;
70106;SDS011;57473;37.508;15.080;2022-08-14T01:23:13;8.88;;;5.60;;
70106;SDS011;57473;37.508;15.080;2022-08-14T01:25:47;6.85;;;5.10;;
70106;SDS011;57473;37.508;15.080;2022-08-14T01:28:18;7.20;;;5.43;;
70106;SDS011;57473;37.508;15.080;2022-08-14T01:31:09;8.95;;;7.05;;
70106;SDS011;57473;37.508;15.080;2022-08-14T01:33:42;8.23;;;6.18;;
70106;SDS011;57473;37.508;15.080;2022-08-14T01:36:33;8.98;;;5.28;;
70106;SDS011;57473;37.508;15.080;2022-08-14T01:41:40;6.90;;;5.38;;
70106;SDS011;57473;37.508;15.080;2022-08-14T01:44:10;6.50;;;4.93;;
70106;SDS011;57473;37.508;15.080;2022-08-14T01:47:00;8.73;;;5.60;;
70106;SDS011;57473;37.508;15.080;2022-08-14T01:49:37;9.40;;;6.20;;
70106;SDS011;57473;37.508;15.080;2022-08-14T01:52:24;10.18;;;5.70;;
70106;SDS011;57473;37.508;15.080;2022-08-14T01:55:11;7.25;;;5.80;;
70106;SDS011;57473;37.508;15.080;2022-08-14T01:57:42;9.75;;;5.85;;
70106;SDS011;57473;37.508;15.080;2022-08-14T02:00:27;8.32;;;6.05;;
70106;SDS011;57473;37.508;15.080;2022-08-14T02:03:01;10.43;;;6.68;;
70106;SDS011;57473;37.508;15.080;2022-08-14T02:05:32;9.23;;;6.37;;
70106;SDS011;57473;37.508;15.080;2022-08-14T02:08:04;14.00;;;6.90;;
70106;SDS011;57473;37.508;15.080;2022-08-14T02:10:37;9.18;;;7.05;;
70106;SDS011;57473;37.508;15.080;2022-08-14T02:13:13;11.90;;;6.95;;
70106;SDS011;57473;37.508;15.080;2022-08-14T02:15:43;9.77;;;7.65;;
70106;SDS011;57473;37.508;15.080;2022-08-14T02:18:14;9.00;;;6.40;;
70106;SDS011;57473;37.508;15.080;2022-08-14T02:20:43;11.35;;;7.50;;
70106;SDS011;57473;37.508;15.080;2022-08-14T02:23:13;10.52;;;7.50;;
70106;SDS011;57473;37.508;15.080;2022-08-14T02:25:40;10.90;;;7.65;;
70106;SDS011;57473;37.508;15.080;2022-08-14T02:28:20;11.70;;;7.53;;
70106;SDS011;57473;37.508;15.080;2022-08-14T02:31:08;10.95;;;8.38;;
70106;SDS011;57473;37.508;15.080;2022-08-14T02:33:40;10.60;;;8.07;;
70106;SDS011;57473;37.508;15.080;2022-08-14T02:36:08;13.30;;;8.48;;
70106;SDS011;57473;37.508;15.080;2022-08-14T02:38:56;15.95;;;8.85;;
70106;SDS011;57473;37.508;15.080;2022-08-14T02:41:24;11.30;;;7.72;;
70106;SDS011;57473;37.508;15.080;2022-08-14T02:43:54;9.68;;;7.10;;
70106;SDS011;57473;37.508;15.080;2022-08-14T02:46:26;8.30;;;6.28;;
70106;SDS011;57473;37.508;15.080;2022-08-14T02:48:58;8.57;;;6.75;;
70106;SDS011;57473;37.508;15.080;2022-08-14T02:51:32;8.75;;;6.65;;
70106;SDS011;57473;37.508;15.080;2022-08-14T02:54:02;8.02;;;6.10;;
70106;SDS011;57473;37.508;15.080;2022-08-14T02:56:33;7.40;;;6.53;;
70106;SDS011;57473;37.508;15.080;2022-08-14T02:59:25;8.57;;;6.28;;
70106;SDS011;57473;37.508;15.080;2022-08-14T03:02:00;9.38;;;7.03;;
70106;SDS011;57473;37.508;15.080;2022-08-14T03:04:28;8.13;;;6.45;;
70106;SDS011;57473;37.508;15.080;2022-08-14T03:06:56;9.80;;;7.07;;
70106;SDS011;57473;37.508;15.080;2022-08-14T03:09:34;10.52;;;6.93;;
70106;SDS011;57473;37.508;15.080;2022-08-14T03:12:22;10.43;;;6.72;;
70106;SDS011;57473;37.508;15.080;2022-08-14T03:14:58;8.93;;;6.78;;
70106;SDS011;57473;37.508;15.080;2022-08-14T03:17:41;8.55;;;6.45;;
70106;SDS011;57473;37.508;15.080;2022-08-14T03:20:23;8.73;;;6.57;;
70106;SDS011;57473;37.508;15.080;2022-08-14T03:22:56;9.15;;;6.57;;
70106;SDS011;57473;37.508;15.080;2022-08-14T03:25:30;10.07;;;7.30;;
70106;SDS011;57473;37.508;15.080;2022-08-14T03:28:06;9.90;;;7.22;;
70106;SDS011;57473;37.508;15.080;2022-08-14T03:30:55;9.98;;;7.07;;
70106;SDS011;57473;37.508;15.080;2022-08-14T03:33:25;11.05;;;7.35;;
70106;SDS011;57473;37.508;15.080;2022-08-14T03:36:04;10.70;;;7.35;;
70106;SDS011;57473;37.508;15.080;2022-08-14T03:38:58;7.93;;;6.85;;
70106;SDS011;57473;37.508;15.080;2022-08-14T03:41:44;9.73;;;6.90;;
70106;SDS011;57473;37.508;15.080;2022-08-14T03:44:12;9.02;;;7.45;;
70106;SDS011;57473;37.508;15.080;2022-08-14T03:47:00;10.15;;;7.88;;
70106;SDS011;57473;37.508;15.080;2022-08-14T03:49:28;11.52;;;8.43;;
70106;SDS011;57473;37.508;15.080;2022-08-14T03:51:56;8.27;;;7.13;;
70106;SDS011;57473;37.508;15.080;2022-08-14T03:54:26;11.00;;;7.95;;
70106;SDS011;57473;37.508;15.080;2022-08-14T03:56:54;12.82;;;7.90;;
70106;SDS011;57473;37.508;15.080;2022-08-14T03:59:29;9.45;;;7.50;;
70106;SDS011;57473;37.508;15.080;2022-08-14T04:01:58;11.30;;;7.55;;
70106;SDS011;57473;37.508;15.080;2022-08-14T04:04:28;11.30;;;7.38;;
70106;SDS011;57473;37.508;15.080;2022-08-14T04:06:57;10.20;;;8.13;;
70106;SDS011;57473;37.508;15.080;2022-08-14T04:09:25;12.50;;;10.75;;
70106;SDS011;57473;37.508;15.080;2022-08-14T04:11:54;11.75;;;8.32;;
70106;SDS011;57473;37.508;15.080;2022-08-14T04:14:25;13.15;;;7.78;;
70106;SDS011;57473;37.508;15.080;2022-08-14T04:16:54;12.23;;;7.90;;
70106;SDS011;57473;37.508;15.080;2022-08-14T04:19:22;11.48;;;7.68;;
70106;SDS011;57473;37.508;15.080;2022-08-14T04:21:53;10.95;;;7.55;;
70106;SDS011;57473;37.508;15.080;2022-08-14T04:24:32;23.10;;;12.48;;
70106;SDS011;57473;37.508;15.080;2022-08-14T04:27:07;64.35;;;29.70;;
70106;SDS011;57473;37.508;15.080;2022-08-14T04:29:41;134.25;;;70.07;;
70106;SDS011;57473;37.508;15.080;2022-08-14T04:32:11;53.63;;;31.10;;
70106;SDS011;57473;37.508;15.080;2022-08-14T04:35:00;17.42;;;10.32;;
70106;SDS011;57473;37.508;15.080;2022-08-14T04:37:37;13.02;;;8.68;;
70106;SDS011;57473;37.508;15.080;2022-08-14T04:40:22;13.07;;;8.65;;
70106;SDS011;57473;37.508;15.080;2022-08-14T04:43:08;13.40;;;9.30;;
70106;SDS011;57473;37.508;15.080;2022-08-14T04:46:12;12.10;;;9.00;;
70106;SDS011;57473;37.508;15.080;2022-08-14T04:49:04;13.55;;;9.10;;
70106;SDS011;57473;37.508;15.080;2022-08-14T04:51:33;15.07;;;9.30;;
70106;SDS011;57473;37.508;15.080;2022-08-14T04:54:20;14.02;;;8.90;;
70106;SDS011;57473;37.508;15.080;2022-08-14T04:56:50;12.70;;;8.98;;
70106;SDS011;57473;37.508;15.080;2022-08-14T04:59:19;13.32;;;8.68;;
70106;SDS011;57473;37.508;15.080;2022-08-14T05:01:48;13.88;;;8.93;;
70106;SDS011;57473;37.508;15.080;2022-08-14T05:04:21;12.85;;;8.88;;
70106;SDS011;57473;37.508;15.080;2022-08-14T05:06:51;40.97;;;21.33;;
70106;SDS011;57473;37.508;15.080;2022-08-14T05:09:23;37.75;;;23.80;;
70106;SDS011;57473;37.508;15.080;2022-08-14T05:11:56;13.75;;;9.55;;
70106;SDS011;57473;37.508;15.080;2022-08-14T05:14:43;12.40;;;9.68;;
70106;SDS011;57473;37.508;15.080;2022-08-14T05:17:20;11.80;;;8.68;;
70106;SDS011;57473;37.508;15.080;2022-08-14T05:20:09;14.90;;;9.75;;
70106;SDS011;57473;37.508;15.080;2022-08-14T05:22:57;16.23;;;9.05;;
70106;SDS011;57473;37.508;15.080;2022-08-14T05:25:26;12.32;;;8.75;;
70106;SDS011;57473;37.508;15.080;2022-08-14T05:28:12;11.27;;;8.32;;
70106;SDS011;57473;37.508;15.080;2022-08-14T05:30:46;15.90;;;9.82;;
70106;SDS011;57473;37.508;15.080;2022-08-14T05:33:21;13.30;;;8.90;;
70106;SDS011;57473;37.508;15.080;2022-08-14T05:35:51;14.02;;;9.88;;
70106;SDS011;57473;37.508;15.080;2022-08-14T05:38:20;15.63;;;11.43;;
70106;SDS011;57473;37.508;15.080;2022-08-14T05:40:57;16.13;;;10.20;;
70106;SDS011;57473;37.508;15.080;2022-08-14T05:43:26;15.43;;;10.15;;
70106;SDS011;57473;37.508;15.080;2022-08-14T05:46:10;13.93;;;10.35;;
70106;SDS011;57473;37.508;15.080;2022-08-14T05:48:41;15.30;;;10.88;;
70106;SDS011;57473;37.508;15.080;2022-08-14T05:51:09;13.15;;;8.80;;
70106;SDS011;57473;37.508;15.080;2022-08-14T05:53:38;15.43;;;9.00;;
70106;SDS011;57473;37.508;15.080;2022-08-14T05:56:08;11.35;;;8.43;;
70106;SDS011;57473;37.508;15.080;2022-08-14T05:58:35;15.75;;;10.10;;
70106;SDS011;57473;37.508;15.080;2022-08-14T06:01:06;14.15;;;8.35;;
70106;SDS011;57473;37.508;15.080;2022-08-14T06:03:35;10.43;;;6.80;;
70106;SDS011;57473;37.508;15.080;2022-08-14T06:06:05;9.88;;;6.70;;
70106;SDS011;57473;37.508;15.080;2022-08-14T06:08:33;6.43;;;5.50;;
70106;SDS011;57473;37.508;15.080;2022-08-14T06:11:07;7.60;;;5.55;;
70106;SDS011;57473;37.508;15.080;2022-08-14T06:13:36;10.30;;;5.90;;
70106;SDS011;57473;37.508;15.080;2022-08-14T06:16:13;9.43;;;4.95;;
70106;SDS011;57473;37.508;15.080;2022-08-14T06:18:46;8.57;;;5.85;;
70106;SDS011;57473;37.508;15.080;2022-08-14T06:21:21;9.10;;;6.63;;
70106;SDS011;57473;37.508;15.080;2022-08-14T06:23:49;8.63;;;5.95;;
70106;SDS011;57473;37.508;15.080;2022-08-14T06:26:16;8.00;;;5.15;;
70106;SDS011;57473;37.508;15.080;2022-08-14T06:28:47;8.50;;;5.90;;
70106;SDS011;57473;37.508;15.080;2022-08-14T06:31:19;7.65;;;6.35;;
70106;SDS011;57473;37.508;15.080;2022-08-14T06:33:48;9.00;;;6.03;;
70106;SDS011;57473;37.508;15.080;2022-08-14T06:36:35;7.97;;;5.75;;
70106;SDS011;57473;37.508;15.080;2022-08-14T06:39:05;9.43;;;6.63;;
70106;SDS011;57473;37.508;15.080;2022-08-14T06:41:36;9.38;;;6.25;;
70106;SDS011;57473;37.508;15.080;2022-08-14T06:44:25;11.32;;;6.85;;
70106;SDS011;57473;37.508;15.080;2022-08-14T06:46:58;10.27;;;6.72;;
70106;SDS011;57473;37.508;15.080;2022-08-14T06:49:30;9.73;;;6.43;;
70106;SDS011;57473;37.508;15.080;2022-08-14T06:52:09;7.78;;;6.53;;
70106;SDS011;57473;37.508;15.080;2022-08-14T06:54:41;11.77;;;6.63;;
70106;SDS011;57473;37.508;15.080;2022-08-14T06:57:10;10.10;;;6.30;;
70106;SDS011;57473;37.508;15.080;2022-08-14T06:59:39;9.05;;;6.30;;
70106;SDS011;57473;37.508;15.080;2022-08-14T07:02:07;9.68;;;6.40;;
70106;SDS011;57473;37.508;15.080;2022-08-14T07:04:54;11.48;;;6.60;;
70106;SDS011;57473;37.508;15.080;2022-08-14T07:07:48;10.18;;;6.57;;
70106;SDS011;57473;37.508;15.080;2022-08-14T07:10:16;11.32;;;6.43;;
70106;SDS011;57473;37.508;15.080;2022-08-14T07:12:44;9.57;;;6.00;;
70106;SDS011;57473;37.508;15.080;2022-08-14T07:15:29;11.43;;;6.47;;
70106;SDS011;57473;37.508;15.080;2022-08-14T07:18:05;10.95;;;6.60;;
70106;SDS011;57473;37.508;15.080;2022-08-14T07:20:34;9.63;;;6.20;;
70106;SDS011;57473;37.508;15.080;2022-08-14T07:23:02;9.30;;;6.25;;
70106;SDS011;57473;37.508;15.080;2022-08-14T07:25:37;8.07;;;6.03;;
70106;SDS011;57473;37.508;15.080;2022-08-14T07:28:19;7.53;;;5.53;;
70106;SDS011;57473;37.508;15.080;2022-08-14T07:33:22;12.65;;;6.65;;
70106;SDS011;57473;37.508;15.080;2022-08-14T07:35:56;9.38;;;6.10;;
70106;SDS011;57473;37.508;15.080;2022-08-14T07:38:26;7.28;;;5.90;;
70106;SDS011;57473;37.508;15.080;2022-08-14T07:41:02;11.88;;;5.72;;
70106;SDS011;57473;37.508;15.080;2022-08-14T07:43:40;9.43;;;6.20;;
70106;SDS011;57473;37.508;15.080;2022-08-14T07:46:18;11.45;;;6.07;;
70106;SDS011;57473;37.508;15.080;2022-08-14T07:48:54;11.38;;;6.45;;
70106;SDS011;57473;37.508;15.080;2022-08-14T07:51:22;10.98;;;5.80;;
70106;SDS011;57473;37.508;15.080;2022-08-14T07:53:51;12.45;;;5.82;;
70106;SDS011;57473;37.508;15.080;2022-08-14T07:56:22;11.15;;;5.72;;
70106;SDS011;57473;37.508;15.080;2022-08-14T07:59:10;8.02;;;5.60;;
70106;SDS011;57473;37.508;15.080;2022-08-14T08:01:38;8.70;;;5.80;;
70106;SDS011;57473;37.508;15.080;2022-08-14T08:04:17;8.60;;;5.05;;
70106;SDS011;57473;37.508;15.080;2022-08-14T08:06:51;8.30;;;5.70;;
70106;SDS011;57473;37.508;15.080;2022-08-14T08:09:20;9.05;;;5.85;;
70106;SDS011;57473;37.508;15.080;2022-08-14T08:11:58;8.90;;;5.45;;
70106;SDS011;57473;37.508;15.080;2022-08-14T08:14:33;11.63;;;5.75;;
70106;SDS011;57473;37.508;15.080;2022-08-14T08:17:21;7.57;;;5.18;;
70106;SDS011;57473;37.508;15.080;2022-08-14T08:19:49;7.53;;;5.68;;
70106;SDS011;57473;37.508;15.080;2022-08-14T08:22:17;11.75;;;5.50;;
70106;SDS011;57473;37.508;15.080;2022-08-14T08:24:47;9.55;;;5.20;;
70106;SDS011;57473;37.508;15.080;2022-08-14T08:27:16;11.48;;;5.65;;
70106;SDS011;57473;37.508;15.080;2022-08-14T08:29:49;8.38;;;5.20;;
70106;SDS011;57473;37.508;15.080;2022-08-14T08:32:17;10.13;;;5.18;;
70106;SDS011;57473;37.508;15.080;2022-08-14T08:34:45;6.57;;;5.30;;
70106;SDS011;57473;37.508;15.080;2022-08-14T08:37:15;11.55;;;5.63;;
70106;SDS011;57473;37.508;15.080;2022-08-14T08:39:44;12.23;;;5.32;;
70106;SDS011;57473;37.508;15.080;2022-08-14T08:42:29;6.43;;;4.82;;
70106;SDS011;57473;37.508;15.080;2022-08-14T08:45:07;7.70;;;4.82;;
70106;SDS011;57473;37.508;15.080;2022-08-14T08:47:38;11.82;;;8.02;;
70106;SDS011;57473;37.508;15.080;2022-08-14T08:50:20;8.57;;;5.35;;
70106;SDS011;57473;37.508;15.080;2022-08-14T08:52:57;9.60;;;5.20;;
70106;SDS011;57473;37.508;15.080;2022-08-14T08:55:28;8.07;;;5.10;;
70106;SDS011;57473;37.508;15.080;2022-08-14T08:58:01;8.07;;;5.93;;
70106;SDS011;57473;37.508;15.080;2022-08-14T09:00:47;7.60;;;5.10;;
70106;SDS011;57473;37.508;15.080;2022-08-14T09:03:21;7.18;;;5.70;;
70106;SDS011;57473;37.508;15.080;2022-08-14T09:08:51;8.07;;;5.43;;
70106;SDS011;57473;37.508;15.080;2022-08-14T09:11:22;7.65;;;5.47;;
70106;SDS011;57473;37.508;15.080;2022-08-14T09:13:50;7.80;;;5.60;;
70106;SDS011;57473;37.508;15.080;2022-08-14T09:16:19;9.65;;;6.00;;
70106;SDS011;57473;37.508;15.080;2022-08-14T09:18:50;9.50;;;7.50;;
70106;SDS011;57473;37.508;15.080;2022-08-14T09:21:19;7.57;;;6.10;;
70106;SDS011;57473;37.508;15.080;2022-08-14T09:23:51;9.63;;;5.63;;
70106;SDS011;57473;37.508;15.080;2022-08-14T09:26:41;9.63;;;6.72;;
70106;SDS011;57473;37.508;15.080;2022-08-14T09:29:15;9.52;;;5.00;;
70106;SDS011;57473;37.508;15.080;2022-08-14T09:31:49;8.35;;;4.80;;
70106;SDS011;57473;37.508;15.080;2022-08-14T09:34:42;9.13;;;5.07;;
70106;SDS011;57473;37.508;15.080;2022-08-14T09:40:10;7.65;;;5.55;;
70106;SDS011;57473;37.508;15.080;2022-08-14T09:43:34;8.23;;;5.00;;
70106;SDS011;57473;37.508;15.080;2022-08-14T09:45:48;8.18;;;4.80;;
70106;SDS011;57473;37.508;15.080;2022-08-14T09:48:20;6.95;;;5.00;;
70106;SDS011;57473;37.508;15.080;2022-08-14T09:50:56;7.53;;;4.80;;
70106;SDS011;57473;37.508;15.080;2022-08-14T09:53:35;7.55;;;5.28;;
70106;SDS011;57473;37.508;15.080;2022-08-14T09:56:22;5.32;;;4.75;;
70106;SDS011;57473;37.508;15.080;2022-08-14T09:58:57;12.60;;;8.80;;
70106;SDS011;57473;37.508;15.080;2022-08-14T10:01:41;9.88;;;6.55;;
70106;SDS011;57473;37.508;15.080;2022-08-14T10:04:20;9.40;;;4.75;;
70106;SDS011;57473;37.508;15.080;2022-08-14T10:07:01;6.70;;;5.30;;
70106;SDS011;57473;37.508;15.080;2022-08-14T10:09:31;7.32;;;5.10;;
70106;SDS011;57473;37.508;15.080;2022-08-14T10:12:00;11.13;;;4.70;;
70106;SDS011;57473;37.508;15.080;2022-08-14T10:14:32;7.70;;;4.65;;
70106;SDS011;57473;37.508;15.080;2022-08-14T10:17:03;7.28;;;4.25;;
70106;SDS011;57473;37.508;15.080;2022-08-14T10:19:33;5.88;;;4.40;;
70106;SDS011;57473;37.508;15.080;2022-08-14T10:22:06;6.40;;;4.80;;
70106;SDS011;57473;37.508;15.080;2022-08-14T10:24:55;10.00;;;4.82;;
70106;SDS011;57473;37.508;15.080;2022-08-14T10:27:26;6.70;;;5.20;;
70106;SDS011;57473;37.508;15.080;2022-08-14T10:29:55;7.43;;;4.97;;
70106;SDS011;57473;37.508;15.080;2022-08-14T10:32:27;9.75;;;6.32;;
70106;SDS011;57473;37.508;15.080;2022-08-14T10:35:14;7.18;;;4.65;;
70106;SDS011;57473;37.508;15.080;2022-08-14T10:37:46;5.68;;;4.15;;
70106;SDS011;57473;37.508;15.080;2022-08-14T10:40:24;9.93;;;5.72;;
70106;SDS011;57473;37.508;15.080;2022-08-14T10:43:20;6.70;;;4.53;;
70106;SDS011;57473;37.508;15.080;2022-08-14T10:45:56;7.18;;;4.78;;
70106;SDS011;57473;37.508;15.080;2022-08-14T10:51:31;7.60;;;5.03;;
70106;SDS011;57473;37.508;15.080;2022-08-14T10:54:07;5.32;;;3.97;;
70106;SDS011;57473;37.508;15.080;2022-08-14T10:57:15;8.93;;;4.38;;
70106;SDS011;57473;37.508;15.080;2022-08-14T10:59:52;7.70;;;4.63;;
70106;SDS011;57473;37.508;15.080;2022-08-14T11:02:26;7.40;;;5.40;;
70106;SDS011;57473;37.508;15.080;2022-08-14T11:05:19;12.95;;;6.30;;
70106;SDS011;57473;37.508;15.080;2022-08-14T11:07:54;5.43;;;4.18;;
70106;SDS011;57473;37.508;15.080;2022-08-14T11:13:09;7.15;;;4.63;;
70106;SDS011;57473;37.508;15.080;2022-08-14T11:15:41;9.98;;;4.78;;
70106;SDS011;57473;37.508;15.080;2022-08-14T11:18:11;6.13;;;4.05;;
70106;SDS011;57473;37.508;15.080;2022-08-14T11:20:58;8.45;;;4.50;;
70106;SDS011;57473;37.508;15.080;2022-08-14T11:23:31;20.73;;;12.97;;
70106;SDS011;57473;37.508;15.080;2022-08-14T11:26:06;6.20;;;4.00;;
70106;SDS011;57473;37.508;15.080;2022-08-14T11:28:37;5.78;;;4.25;;
70106;SDS011;57473;37.508;15.080;2022-08-14T11:31:13;7.90;;;3.90;;
70106;SDS011;57473;37.508;15.080;2022-08-14T11:33:51;6.53;;;4.22;;
70106;SDS011;57473;37.508;15.080;2022-08-14T11:36:23;9.82;;;3.60;;
70106;SDS011;57473;37.508;15.080;2022-08-14T11:39:17;6.53;;;3.80;;
70106;SDS011;57473;37.508;15.080;2022-08-14T11:41:59;5.68;;;3.40;;
70106;SDS011;57473;37.508;15.080;2022-08-14T11:44:49;6.90;;;3.38;;
70106;SDS011;57473;37.508;15.080;2022-08-14T11:47:22;5.07;;;3.50;;
70106;SDS011;57473;37.508;15.080;2022-08-14T11:49:51;5.90;;;3.30;;
70106;SDS011;57473;37.508;15.080;2022-08-14T11:52:19;5.10;;;3.38;;
70106;SDS011;57473;37.508;15.080;2022-08-14T11:54:55;5.90;;;3.47;;
70106;SDS011;57473;37.508;15.080;2022-08-14T11:57:24;9.05;;;4.45;;
70106;SDS011;57473;37.508;15.080;2022-08-14T12:00:02;4.88;;;3.53;;
70106;SDS011;57473;37.508;15.080;2022-08-14T12:02:34;6.85;;;3.70;;
70106;SDS011;57473;37.508;15.080;2022-08-14T12:06:02;5.63;;;3.65;;
70106;SDS011;57473;37.508;15.080;2022-08-14T12:08:15;6.13;;;3.80;;
70106;SDS011;57473;37.508;15.080;2022-08-14T12:10:50;7.30;;;3.55;;
70106;SDS011;57473;37.508;15.080;2022-08-14T12:13:24;6.10;;;3.95;;
70106;SDS011;57473;37.508;15.080;2022-08-14T12:16:01;5.88;;;3.60;;
70106;SDS011;57473;37.508;15.080;2022-08-14T12:18:46;7.13;;;3.85;;
70106;SDS011;57473;37.508;15.080;2022-08-14T12:21:16;7.82;;;6.07;;
70106;SDS011;57473;37.508;15.080;2022-08-14T12:23:46;6.97;;;3.58;;
70106;SDS011;57473;37.508;15.080;2022-08-14T12:26:27;4.20;;;3.50;;
70106;SDS011;57473;37.508;15.080;2022-08-14T12:29:09;7.05;;;3.60;;
70106;SDS011;57473;37.508;15.080;2022-08-14T12:31:39;6.65;;;3.97;;
70106;SDS011;57473;37.508;15.080;2022-08-14T12:34:17;5.38;;;3.33;;
70106;SDS011;57473;37.508;15.080;2022-08-14T12:36:59;4.57;;;3.55;;
70106;SDS011;57473;37.508;15.080;2022-08-14T12:39:31;7.60;;;4.18;;
70106;SDS011;57473;37.508;15.080;2022-08-14T12:42:06;5.90;;;3.60;;
70106;SDS011;57473;37.508;15.080;2022-08-14T12:44:37;6.47;;;4.55;;
70106;SDS011;57473;37.508;15.080;2022-08-14T12:47:09;38.92;;;28.42;;
70106;SDS011;57473;37.508;15.080;2022-08-14T12:49:49;5.32;;;3.72;;
70106;SDS011;57473;37.508;15.080;2022-08-14T12:52:37;4.45;;;3.47;;
70106;SDS011;57473;37.508;15.080;2022-08-14T12:55:26;5.57;;;2.90;;
70106;SDS011;57473;37.508;15.080;2022-08-14T12:58:13;3.65;;;3.05;;
70106;SDS011;57473;37.508;15.080;2022-08-14T13:01:03;4.50;;;3.17;;
70106;SDS011;57473;37.508;15.080;2022-08-14T13:03:46;5.35;;;3.35;;
70106;SDS011;57473;37.508;15.080;2022-08-14T13:06:17;5.85;;;3.00;;
70106;SDS011;57473;37.508;15.080;2022-08-14T13:08:49;6.05;;;2.85;;
70106;SDS011;57473;37.508;15.080;2022-08-14T13:11:18;4.70;;;3.22;;
70106;SDS011;57473;37.508;15.080;2022-08-14T13:13:49;6.70;;;5.10;;
70106;SDS011;57473;37.508;15.080;2022-08-14T13:16:23;6.63;;;3.45;;
70106;SDS011;57473;37.508;15.080;2022-08-14T13:19:03;5.33;;;2.77;;
70106;SDS011;57473;37.508;15.080;2022-08-14T13:21:37;7.28;;;3.13;;
70106;SDS011;57473;37.508;15.080;2022-08-14T13:24:26;6.30;;;3.70;;
70106;SDS011;57473;37.508;15.080;2022-08-14T13:26:54;5.32;;;3.20;;
70106;SDS011;57473;37.508;15.080;2022-08-14T13:29:27;6.35;;;3.70;;
70106;SDS011;57473;37.508;15.080;2022-08-14T13:31:59;9.52;;;5.68;;
70106;SDS011;57473;37.508;15.080;2022-08-14T13:34:30;6.90;;;4.32;;
70106;SDS011;57473;37.508;15.080;2022-08-14T13:36:58;6.22;;;3.45;;
70106;SDS011;57473;37.508;15.080;2022-08-14T13:39:29;5.15;;;3.53;;
70106;SDS011;57473;37.508;15.080;2022-08-14T13:42:03;6.28;;;3.28;;
70106;SDS011;57473;37.508;15.080;2022-08-14T13:44:43;8.05;;;3.60;;
70106;SDS011;57473;37.508;15.080;2022-08-14T13:47:11;4.47;;;3.10;;
70106;SDS011;57473;37.508;15.080;2022-08-14T13:49:41;5.22;;;3.40;;
70106;SDS011;57473;37.508;15.080;2022-08-14T13:52:24;7.82;;;3.55;;
70106;SDS011;57473;37.508;15.080;2022-08-14T13:55:13;4.72;;;3.42;;
70106;SDS011;57473;37.508;15.080;2022-08-14T13:57:43;8.20;;;4.03;;
70106;SDS011;57473;37.508;15.080;2022-08-14T14:00:31;7.55;;;4.75;;
70106;SDS011;57473;37.508;15.080;2022-08-14T14:03:19;8.10;;;5.25;;
70106;SDS011;57473;37.508;15.080;2022-08-14T14:05:52;6.50;;;4.35;;
70106;SDS011;57473;37.508;15.080;2022-08-14T14:08:21;8.07;;;4.10;;
70106;SDS011;57473;37.508;15.080;2022-08-14T14:11:10;6.35;;;3.95;;
70106;SDS011;57473;37.508;15.080;2022-08-14T14:13:41;8.13;;;4.65;;
70106;SDS011;57473;37.508;15.080;2022-08-14T14:16:12;6.10;;;4.88;;
70106;SDS011;57473;37.508;15.080;2022-08-14T14:18:55;7.95;;;4.20;;
70106;SDS011;57473;37.508;15.080;2022-08-14T14:21:34;7.35;;;3.88;;
70106;SDS011;57473;37.508;15.080;2022-08-14T14:24:03;11.52;;;6.90;;
70106;SDS011;57473;37.508;15.080;2022-08-14T14:26:32;6.03;;;4.47;;
70106;SDS011;57473;37.508;15.080;2022-08-14T14:29:02;7.45;;;4.70;;
70106;SDS011;57473;37.508;15.080;2022-08-14T14:31:34;6.68;;;4.32;;
70106;SDS011;57473;37.508;15.080;2022-08-14T14:34:06;7.32;;;3.80;;
70106;SDS011;57473;37.508;15.080;2022-08-14T14:36:56;8.38;;;4.10;;
70106;SDS011;57473;37.508;15.080;2022-08-14T14:39:31;5.82;;;4.13;;
70106;SDS011;57473;37.508;15.080;2022-08-14T14:42:04;7.30;;;4.28;;
70106;SDS011;57473;37.508;15.080;2022-08-14T14:44:39;7.47;;;4.20;;
70106;SDS011;57473;37.508;15.080;2022-08-14T14:47:09;7.88;;;3.78;;
70106;SDS011;57473;37.508;15.080;2022-08-14T14:49:43;8.13;;;4.28;;
70106;SDS011;57473;37.508;15.080;2022-08-14T14:52:21;7.28;;;4.10;;
70106;SDS011;57473;37.508;15.080;2022-08-14T14:55:02;6.20;;;4.15;;
70106;SDS011;57473;37.508;15.080;2022-08-14T14:57:32;5.78;;;4.10;;
70106;SDS011;57473;37.508;15.080;2022-08-14T15:00:11;7.85;;;4.03;;
70106;SDS011;57473;37.508;15.080;2022-08-14T15:02:46;7.70;;;4.25;;
70106;SDS011;57473;37.508;15.080;2022-08-14T15:05:17;9.35;;;5.15;;
70106;SDS011;57473;37.508;15.080;2022-08-14T15:07:46;7.03;;;4.38;;
70106;SDS011;57473;37.508;15.080;2022-08-14T15:10:16;7.97;;;3.88;;
70106;SDS011;57473;37.508;15.080;2022-08-14T15:12:55;9.52;;;4.53;;
70106;SDS011;57473;37.508;15.080;2022-08-14T15:15:29;9.52;;;4.45;;
70106;SDS011;57473;37.508;15.080;2022-08-14T15:17:58;9.98;;;4.50;;
70106;SDS011;57473;37.508;15.080;2022-08-14T15:20:26;7.18;;;4.15;;
70106;SDS011;57473;37.508;15.080;2022-08-14T15:22:57;6.82;;;4.63;;
70106;SDS011;57473;37.508;15.080;2022-08-14T15:25:41;7.88;;;4.38;;
70106;SDS011;57473;37.508;15.080;2022-08-14T15:28:18;8.02;;;3.97;;
70106;SDS011;57473;37.508;15.080;2022-08-14T15:30:48;7.13;;;4.25;;
70106;SDS011;57473;37.508;15.080;2022-08-14T15:33:24;7.57;;;4.57;;
70106;SDS011;57473;37.508;15.080;2022-08-14T15:36:31;7.40;;;4.28;;
70106;SDS011;57473;37.508;15.080;2022-08-14T15:39:00;6.10;;;4.43;;